sensor_id;sensor_type;location;lat;lon;timestamp;P1;durP1;ratioP1;P2;durP2;ratioP2
2934;SDS011;2462;51.456;7.248;2023-11-21T00:00:25;5.47;;;4.40;;
2934;SDS011;2462;51.456;7.248;2023-11-21T00:02:51;4.23;;;3.70;;
2934;SDS011;2462;51.456;7.248;2023-11-21T00:05:17;5.70;;;4.50;;
2934;SDS011;2462;51.456;7.248;2023-11-21T00:07:43;6.17;;;4.80;;
2934;SDS011;2462;51.456;7.248;2023-11-21T00:10:10;5.27;;;4.13;;
2934;SDS011;2462;51.456;7.248;2023-11-21T00:12:36;7.40;;;5.07;;
2934;SDS011;2462;51.456;7.248;2023-11-21T00:15:03;5.90;;;4.33;;
2934;SDS011;2462;51.456;7.248;2023-11-21T00:17:38;4.90;;;4.40;;
2934;SDS011;2462;51.456;7.248;2023-11-21T00:20:05;5.27;;;4.77;;
2934;SDS011;2462;51.456;7.248;2023-11-21T00:22:32;6.33;;;4.57;;
2934;SDS011;2462;51.456;7.248;2023-11-21T00:24:58;5.47;;;4.47;;
2934;SDS011;2462;51.456;7.248;2023-11-21T00:27:24;4.83;;;4.10;;
2934;SDS011;2462;51.456;7.248;2023-11-21T00:29:50;4.90;;;4.23;;
2934;SDS011;2462;51.456;7.248;2023-11-21T00:32:16;6.07;;;4.87;;
2934;SDS011;2462;51.456;7.248;2023-11-21T00:34:42;9.47;;;5.70;;
2934;SDS011;2462;51.456;7.248;2023-11-21T00:37:09;6.67;;;4.37;;
2934;SDS011;2462;51.456;7.248;2023-11-21T00:39:34;6.53;;;4.47;;
2934;SDS011;2462;51.456;7.248;2023-11-21T00:42:00;8.83;;;5.80;;
2934;SDS011;2462;51.456;7.248;2023-11-21T00:44:26;8.77;;;5.00;;
2934;SDS011;2462;51.456;7.248;2023-11-21T00:46:52;6.43;;;5.40;;
2934;SDS011;2462;51.456;7.248;2023-11-21T00:49:19;6.00;;;4.00;;
2934;SDS011;2462;51.456;7.248;2023-11-21T00:51:46;7.57;;;5.30;;
2934;SDS011;2462;51.456;7.248;2023-11-21T00:54:11;5.60;;;5.07;;
2934;SDS011;2462;51.456;7.248;2023-11-21T00:56:37;5.97;;;4.20;;
2934;SDS011;2462;51.456;7.248;2023-11-21T00:59:05;5.37;;;4.20;;
2934;SDS011;2462;51.456;7.248;2023-11-21T01:01:31;4.70;;;4.20;;
2934;SDS011;2462;51.456;7.248;2023-11-21T01:03:58;7.17;;;4.73;;
2934;SDS011;2462;51.456;7.248;2023-11-21T01:06:25;6.57;;;4.53;;
2934;SDS011;2462;51.456;7.248;2023-11-21T01:08:51;6.37;;;4.80;;
2934;SDS011;2462;51.456;7.248;2023-11-21T01:11:17;7.43;;;4.80;;
2934;SDS011;2462;51.456;7.248;2023-11-21T01:13:43;4.90;;;3.87;;
2934;SDS011;2462;51.456;7.248;2023-11-21T01:16:10;5.33;;;4.83;;
2934;SDS011;2462;51.456;7.248;2023-11-21T01:18:36;5.97;;;4.60;;
2934;SDS011;2462;51.456;7.248;2023-11-21T01:21:02;7.10;;;5.00;;
2934;SDS011;2462;51.456;7.248;2023-11-21T01:23:28;6.23;;;4.33;;
2934;SDS011;2462;51.456;7.248;2023-11-21T01:25:56;5.50;;;4.77;;
2934;SDS011;2462;51.456;7.248;2023-11-21T01:28:22;8.40;;;5.10;;
2934;SDS011;2462;51.456;7.248;2023-11-21T01:30:48;4.90;;;4.40;;
2934;SDS011;2462;51.456;7.248;2023-11-21T01:33:14;7.60;;;4.87;;
2934;SDS011;2462;51.456;7.248;2023-11-21T01:35:41;6.50;;;4.10;;
2934;SDS011;2462;51.456;7.248;2023-11-21T01:38:07;8.83;;;5.00;;
2934;SDS011;2462;51.456;7.248;2023-11-21T01:40:33;5.50;;;4.57;;
2934;SDS011;2462;51.456;7.248;2023-11-21T01:42:59;6.53;;;5.30;;
2934;SDS011;2462;51.456;7.248;2023-11-21T01:45:27;5.47;;;4.23;;
2934;SDS011;2462;51.456;7.248;2023-11-21T01:47:55;5.30;;;4.70;;
2934;SDS011;2462;51.456;7.248;2023-11-21T01:50:21;7.50;;;4.30;;
2934;SDS011;2462;51.456;7.248;2023-11-21T01:52:48;7.10;;;5.10;;
2934;SDS011;2462;51.456;7.248;2023-11-21T01:55:14;5.50;;;4.83;;
2934;SDS011;2462;51.456;7.248;2023-11-21T01:57:43;7.70;;;5.30;;
2934;SDS011;2462;51.456;7.248;2023-11-21T02:00:09;5.27;;;4.70;;
2934;SDS011;2462;51.456;7.248;2023-11-21T02:02:48;5.43;;;4.57;;
2934;SDS011;2462;51.456;7.248;2023-11-21T02:05:14;7.33;;;4.80;;
2934;SDS011;2462;51.456;7.248;2023-11-21T02:07:43;6.57;;;4.70;;
2934;SDS011;2462;51.456;7.248;2023-11-21T02:10:09;7.67;;;4.57;;
2934;SDS011;2462;51.456;7.248;2023-11-21T02:12:35;7.00;;;4.73;;
2934;SDS011;2462;51.456;7.248;2023-11-21T02:15:02;8.80;;;5.53;;
2934;SDS011;2462;51.456;7.248;2023-11-21T02:17:35;6.40;;;5.00;;
2934;SDS011;2462;51.456;7.248;2023-11-21T02:20:01;5.17;;;4.67;;
2934;SDS011;2462;51.456;7.248;2023-11-21T02:22:28;6.23;;;5.00;;
2934;SDS011;2462;51.456;7.248;2023-11-21T02:24:56;5.70;;;5.07;;
2934;SDS011;2462;51.456;7.248;2023-11-21T02:27:23;7.30;;;4.70;;
2934;SDS011;2462;51.456;7.248;2023-11-21T02:29:49;6.73;;;4.67;;
2934;SDS011;2462;51.456;7.248;2023-11-21T02:32:16;5.10;;;4.60;;
2934;SDS011;2462;51.456;7.248;2023-11-21T02:34:45;5.50;;;4.47;;
2934;SDS011;2462;51.456;7.248;2023-11-21T02:37:11;8.60;;;4.90;;
2934;SDS011;2462;51.456;7.248;2023-11-21T02:39:37;7.07;;;5.20;;
2934;SDS011;2462;51.456;7.248;2023-11-21T02:42:03;5.30;;;4.80;;
2934;SDS011;2462;51.456;7.248;2023-11-21T02:44:29;6.93;;;5.20;;
2934;SDS011;2462;51.456;7.248;2023-11-21T02:46:55;7.77;;;4.33;;
2934;SDS011;2462;51.456;7.248;2023-11-21T02:49:22;5.37;;;4.60;;
2934;SDS011;2462;51.456;7.248;2023-11-21T02:51:48;4.83;;;4.13;;
2934;SDS011;2462;51.456;7.248;2023-11-21T02:54:14;6.73;;;4.43;;
2934;SDS011;2462;51.456;7.248;2023-11-21T02:56:41;8.60;;;5.50;;
2934;SDS011;2462;51.456;7.248;2023-11-21T02:59:07;5.20;;;4.70;;
2934;SDS011;2462;51.456;7.248;2023-11-21T03:01:33;5.67;;;4.30;;
2934;SDS011;2462;51.456;7.248;2023-11-21T03:03:59;5.60;;;4.90;;
2934;SDS011;2462;51.456;7.248;2023-11-21T03:06:26;5.60;;;4.70;;
2934;SDS011;2462;51.456;7.248;2023-11-21T03:08:53;7.10;;;4.67;;
2934;SDS011;2462;51.456;7.248;2023-11-21T03:11:20;7.03;;;5.30;;
2934;SDS011;2462;51.456;7.248;2023-11-21T03:13:46;5.77;;;4.47;;
2934;SDS011;2462;51.456;7.248;2023-11-21T03:16:12;5.37;;;4.63;;
2934;SDS011;2462;51.456;7.248;2023-11-21T03:18:38;5.60;;;4.83;;
2934;SDS011;2462;51.456;7.248;2023-11-21T03:21:05;6.30;;;4.77;;
2934;SDS011;2462;51.456;7.248;2023-11-21T03:23:31;7.93;;;4.93;;
2934;SDS011;2462;51.456;7.248;2023-11-21T03:25:57;7.93;;;4.83;;
2934;SDS011;2462;51.456;7.248;2023-11-21T03:28:24;6.30;;;5.00;;
2934;SDS011;2462;51.456;7.248;2023-11-21T03:30:51;6.07;;;4.40;;
2934;SDS011;2462;51.456;7.248;2023-11-21T03:33:17;7.43;;;4.93;;
2934;SDS011;2462;51.456;7.248;2023-11-21T03:35:43;6.53;;;4.83;;
2934;SDS011;2462;51.456;7.248;2023-11-21T03:38:09;4.77;;;4.30;;
2934;SDS011;2462;51.456;7.248;2023-11-21T03:40:35;4.60;;;3.97;;
2934;SDS011;2462;51.456;7.248;2023-11-21T03:43:01;6.13;;;4.23;;
2934;SDS011;2462;51.456;7.248;2023-11-21T03:45:28;6.70;;;4.70;;
2934;SDS011;2462;51.456;7.248;2023-11-21T03:47:54;5.30;;;4.67;;
2934;SDS011;2462;51.456;7.248;2023-11-21T03:50:20;5.83;;;4.27;;
2934;SDS011;2462;51.456;7.248;2023-11-21T03:52:46;7.37;;;5.30;;
2934;SDS011;2462;51.456;7.248;2023-11-21T03:55:12;9.03;;;4.80;;
2934;SDS011;2462;51.456;7.248;2023-11-21T03:57:39;7.63;;;5.17;;
2934;SDS011;2462;51.456;7.248;2023-11-21T04:00:06;8.37;;;5.33;;
2934;SDS011;2462;51.456;7.248;2023-11-21T04:02:33;6.00;;;4.30;;
2934;SDS011;2462;51.456;7.248;2023-11-21T04:04:59;6.53;;;4.50;;
2934;SDS011;2462;51.456;7.248;2023-11-21T04:07:27;5.27;;;4.37;;
2934;SDS011;2462;51.456;7.248;2023-11-21T04:09:53;8.10;;;5.47;;
2934;SDS011;2462;51.456;7.248;2023-11-21T04:12:20;5.80;;;4.80;;
2934;SDS011;2462;51.456;7.248;2023-11-21T04:14:45;5.57;;;4.93;;
2934;SDS011;2462;51.456;7.248;2023-11-21T04:17:11;7.30;;;4.30;;
2934;SDS011;2462;51.456;7.248;2023-11-21T04:19:37;6.97;;;4.60;;
2934;SDS011;2462;51.456;7.248;2023-11-21T04:22:03;7.33;;;4.83;;
2934;SDS011;2462;51.456;7.248;2023-11-21T04:24:29;6.13;;;4.87;;
2934;SDS011;2462;51.456;7.248;2023-11-21T04:26:55;4.17;;;3.83;;
2934;SDS011;2462;51.456;7.248;2023-11-21T04:29:21;5.73;;;5.13;;
2934;SDS011;2462;51.456;7.248;2023-11-21T04:31:47;6.03;;;4.80;;
2934;SDS011;2462;51.456;7.248;2023-11-21T04:34:14;6.13;;;4.90;;
2934;SDS011;2462;51.456;7.248;2023-11-21T04:36:40;12.60;;;4.73;;
2934;SDS011;2462;51.456;7.248;2023-11-21T04:39:06;5.70;;;4.67;;
2934;SDS011;2462;51.456;7.248;2023-11-21T04:41:32;5.97;;;4.90;;
2934;SDS011;2462;51.456;7.248;2023-11-21T04:43:58;6.80;;;5.20;;
2934;SDS011;2462;51.456;7.248;2023-11-21T04:46:25;9.37;;;5.00;;
2934;SDS011;2462;51.456;7.248;2023-11-21T04:48:51;6.73;;;4.53;;
2934;SDS011;2462;51.456;7.248;2023-11-21T04:51:17;5.10;;;4.30;;
2934;SDS011;2462;51.456;7.248;2023-11-21T04:53:44;6.80;;;4.93;;
2934;SDS011;2462;51.456;7.248;2023-11-21T04:56:10;7.40;;;4.80;;
2934;SDS011;2462;51.456;7.248;2023-11-21T04:58:36;6.63;;;4.40;;
2934;SDS011;2462;51.456;7.248;2023-11-21T05:01:02;8.67;;;4.90;;
2934;SDS011;2462;51.456;7.248;2023-11-21T05:03:28;6.50;;;4.80;;
2934;SDS011;2462;51.456;7.248;2023-11-21T05:05:55;6.47;;;4.83;;
2934;SDS011;2462;51.456;7.248;2023-11-21T05:08:21;6.33;;;4.67;;
2934;SDS011;2462;51.456;7.248;2023-11-21T05:10:47;7.70;;;4.60;;
2934;SDS011;2462;51.456;7.248;2023-11-21T05:13:17;6.60;;;4.70;;
2934;SDS011;2462;51.456;7.248;2023-11-21T05:15:43;7.57;;;4.80;;
2934;SDS011;2462;51.456;7.248;2023-11-21T05:18:09;6.57;;;5.87;;
2934;SDS011;2462;51.456;7.248;2023-11-21T05:20:36;7.60;;;4.80;;
2934;SDS011;2462;51.456;7.248;2023-11-21T05:23:04;7.63;;;5.07;;
2934;SDS011;2462;51.456;7.248;2023-11-21T05:25:30;6.27;;;4.57;;
2934;SDS011;2462;51.456;7.248;2023-11-21T05:27:57;8.13;;;4.60;;
2934;SDS011;2462;51.456;7.248;2023-11-21T05:30:26;6.43;;;5.17;;
2934;SDS011;2462;51.456;7.248;2023-11-21T05:32:52;7.43;;;4.73;;
2934;SDS011;2462;51.456;7.248;2023-11-21T05:35:18;6.20;;;5.37;;
2934;SDS011;2462;51.456;7.248;2023-11-21T05:37:44;7.50;;;4.90;;
2934;SDS011;2462;51.456;7.248;2023-11-21T05:40:10;5.80;;;4.57;;
2934;SDS011;2462;51.456;7.248;2023-11-21T05:42:37;6.50;;;4.63;;
2934;SDS011;2462;51.456;7.248;2023-11-21T05:45:03;5.67;;;5.07;;
2934;SDS011;2462;51.456;7.248;2023-11-21T05:47:45;6.37;;;4.60;;
2934;SDS011;2462;51.456;7.248;2023-11-21T05:50:12;7.20;;;4.67;;
2934;SDS011;2462;51.456;7.248;2023-11-21T05:52:42;6.30;;;4.20;;
2934;SDS011;2462;51.456;7.248;2023-11-21T05:55:08;5.53;;;4.93;;
2934;SDS011;2462;51.456;7.248;2023-11-21T05:57:35;6.80;;;5.17;;
2934;SDS011;2462;51.456;7.248;2023-11-21T06:00:04;6.77;;;4.83;;
2934;SDS011;2462;51.456;7.248;2023-11-21T06:02:41;7.20;;;5.20;;
2934;SDS011;2462;51.456;7.248;2023-11-21T06:05:07;5.53;;;4.20;;
2934;SDS011;2462;51.456;7.248;2023-11-21T06:07:34;6.50;;;5.17;;
2934;SDS011;2462;51.456;7.248;2023-11-21T06:10:00;7.60;;;4.97;;
2934;SDS011;2462;51.456;7.248;2023-11-21T06:12:27;6.10;;;4.63;;
2934;SDS011;2462;51.456;7.248;2023-11-21T06:14:54;6.00;;;4.60;;
2934;SDS011;2462;51.456;7.248;2023-11-21T06:17:20;5.17;;;4.60;;
2934;SDS011;2462;51.456;7.248;2023-11-21T06:19:47;5.10;;;4.60;;
2934;SDS011;2462;51.456;7.248;2023-11-21T06:22:12;6.80;;;4.97;;
2934;SDS011;2462;51.456;7.248;2023-11-21T06:24:39;7.37;;;4.90;;
2934;SDS011;2462;51.456;7.248;2023-11-21T06:27:07;10.77;;;5.60;;
2934;SDS011;2462;51.456;7.248;2023-11-21T06:29:33;6.00;;;4.70;;
2934;SDS011;2462;51.456;7.248;2023-11-21T06:31:59;5.87;;;5.10;;
2934;SDS011;2462;51.456;7.248;2023-11-21T06:34:25;7.03;;;4.60;;
2934;SDS011;2462;51.456;7.248;2023-11-21T06:36:52;7.53;;;4.47;;
2934;SDS011;2462;51.456;7.248;2023-11-21T06:39:18;7.17;;;4.60;;
2934;SDS011;2462;51.456;7.248;2023-11-21T06:41:47;6.07;;;4.50;;
2934;SDS011;2462;51.456;7.248;2023-11-21T06:44:13;8.03;;;5.30;;
2934;SDS011;2462;51.456;7.248;2023-11-21T06:46:39;6.57;;;4.47;;
2934;SDS011;2462;51.456;7.248;2023-11-21T06:49:07;7.60;;;4.87;;
2934;SDS011;2462;51.456;7.248;2023-11-21T06:51:33;5.73;;;4.50;;
2934;SDS011;2462;51.456;7.248;2023-11-21T06:53:59;6.78;;;4.88;;
2934;SDS011;2462;51.456;7.248;2023-11-21T06:56:25;7.30;;;5.03;;
2934;SDS011;2462;51.456;7.248;2023-11-21T06:58:51;6.57;;;4.60;;
2934;SDS011;2462;51.456;7.248;2023-11-21T07:01:18;6.90;;;5.73;;
2934;SDS011;2462;51.456;7.248;2023-11-21T07:03:44;5.43;;;4.80;;
2934;SDS011;2462;51.456;7.248;2023-11-21T07:06:11;6.43;;;4.60;;
2934;SDS011;2462;51.456;7.248;2023-11-21T07:08:37;6.37;;;5.53;;
2934;SDS011;2462;51.456;7.248;2023-11-21T07:11:04;7.83;;;4.90;;
2934;SDS011;2462;51.456;7.248;2023-11-21T07:13:30;5.17;;;4.63;;
2934;SDS011;2462;51.456;7.248;2023-11-21T07:15:57;6.53;;;5.27;;
2934;SDS011;2462;51.456;7.248;2023-11-21T07:18:23;6.70;;;5.30;;
2934;SDS011;2462;51.456;7.248;2023-11-21T07:20:51;8.33;;;5.57;;
2934;SDS011;2462;51.456;7.248;2023-11-21T07:23:17;8.90;;;5.17;;
2934;SDS011;2462;51.456;7.248;2023-11-21T07:25:43;7.30;;;5.50;;
2934;SDS011;2462;51.456;7.248;2023-11-21T07:28:09;8.47;;;5.30;;
2934;SDS011;2462;51.456;7.248;2023-11-21T07:30:35;8.77;;;5.17;;
2934;SDS011;2462;51.456;7.248;2023-11-21T07:33:01;6.37;;;5.40;;
2934;SDS011;2462;51.456;7.248;2023-11-21T07:35:27;7.80;;;5.50;;
2934;SDS011;2462;51.456;7.248;2023-11-21T07:37:52;8.73;;;5.90;;
2934;SDS011;2462;51.456;7.248;2023-11-21T07:40:18;10.23;;;5.80;;
2934;SDS011;2462;51.456;7.248;2023-11-21T07:42:44;12.17;;;5.80;;
2934;SDS011;2462;51.456;7.248;2023-11-21T07:45:10;9.93;;;5.80;;
2934;SDS011;2462;51.456;7.248;2023-11-21T07:47:36;9.20;;;5.77;;
2934;SDS011;2462;51.456;7.248;2023-11-21T07:50:04;7.50;;;5.70;;
2934;SDS011;2462;51.456;7.248;2023-11-21T07:52:32;7.60;;;5.70;;
2934;SDS011;2462;51.456;7.248;2023-11-21T07:54:58;8.30;;;5.33;;
2934;SDS011;2462;51.456;7.248;2023-11-21T07:57:24;7.10;;;4.90;;
2934;SDS011;2462;51.456;7.248;2023-11-21T07:59:52;6.73;;;5.60;;
2934;SDS011;2462;51.456;7.248;2023-11-21T08:02:20;9.00;;;5.77;;
2934;SDS011;2462;51.456;7.248;2023-11-21T08:04:46;7.67;;;5.53;;
2934;SDS011;2462;51.456;7.248;2023-11-21T08:07:17;9.67;;;5.80;;
2934;SDS011;2462;51.456;7.248;2023-11-21T08:09:43;8.70;;;5.30;;
2934;SDS011;2462;51.456;7.248;2023-11-21T08:12:09;8.60;;;5.77;;
2934;SDS011;2462;51.456;7.248;2023-11-21T08:14:35;8.87;;;6.17;;
2934;SDS011;2462;51.456;7.248;2023-11-21T08:17:04;8.17;;;5.53;;
2934;SDS011;2462;51.456;7.248;2023-11-21T08:19:30;8.30;;;5.13;;
2934;SDS011;2462;51.456;7.248;2023-11-21T08:21:56;8.03;;;6.00;;
2934;SDS011;2462;51.456;7.248;2023-11-21T08:24:24;8.10;;;6.10;;
2934;SDS011;2462;51.456;7.248;2023-11-21T08:26:50;6.70;;;5.80;;
2934;SDS011;2462;51.456;7.248;2023-11-21T08:29:17;8.97;;;5.73;;
2934;SDS011;2462;51.456;7.248;2023-11-21T08:31:43;10.97;;;6.20;;
2934;SDS011;2462;51.456;7.248;2023-11-21T08:34:11;6.63;;;5.00;;
2934;SDS011;2462;51.456;7.248;2023-11-21T08:36:42;8.60;;;5.27;;
2934;SDS011;2462;51.456;7.248;2023-11-21T08:39:08;7.60;;;5.50;;
2934;SDS011;2462;51.456;7.248;2023-11-21T08:41:35;9.73;;;6.80;;
2934;SDS011;2462;51.456;7.248;2023-11-21T08:44:02;9.83;;;6.23;;
2934;SDS011;2462;51.456;7.248;2023-11-21T08:46:32;9.10;;;5.80;;
2934;SDS011;2462;51.456;7.248;2023-11-21T08:48:58;10.03;;;5.93;;
2934;SDS011;2462;51.456;7.248;2023-11-21T08:51:24;9.47;;;5.70;;
2934;SDS011;2462;51.456;7.248;2023-11-21T08:53:50;11.00;;;7.43;;
2934;SDS011;2462;51.456;7.248;2023-11-21T08:56:17;8.47;;;6.30;;
2934;SDS011;2462;51.456;7.248;2023-11-21T08:58:44;8.97;;;6.63;;
2934;SDS011;2462;51.456;7.248;2023-11-21T09:01:13;10.33;;;7.20;;
2934;SDS011;2462;51.456;7.248;2023-11-21T09:03:39;8.07;;;6.47;;
2934;SDS011;2462;51.456;7.248;2023-11-21T09:06:05;9.80;;;6.93;;
2934;SDS011;2462;51.456;7.248;2023-11-21T09:08:31;11.00;;;6.77;;
2934;SDS011;2462;51.456;7.248;2023-11-21T09:10:57;11.50;;;7.10;;
2934;SDS011;2462;51.456;7.248;2023-11-21T09:13:23;11.10;;;6.00;;
2934;SDS011;2462;51.456;7.248;2023-11-21T09:15:50;11.70;;;7.03;;
2934;SDS011;2462;51.456;7.248;2023-11-21T09:18:16;10.37;;;6.90;;
2934;SDS011;2462;51.456;7.248;2023-11-21T09:20:42;9.50;;;6.70;;
2934;SDS011;2462;51.456;7.248;2023-11-21T09:23:12;13.60;;;7.97;;
2934;SDS011;2462;51.456;7.248;2023-11-21T09:25:38;10.20;;;7.40;;
2934;SDS011;2462;51.456;7.248;2023-11-21T09:28:05;9.70;;;6.90;;
2934;SDS011;2462;51.456;7.248;2023-11-21T09:30:34;13.60;;;8.13;;
2934;SDS011;2462;51.456;7.248;2023-11-21T09:33:01;12.30;;;7.77;;
2934;SDS011;2462;51.456;7.248;2023-11-21T09:35:27;15.97;;;7.43;;
2934;SDS011;2462;51.456;7.248;2023-11-21T09:37:53;12.10;;;7.13;;
2934;SDS011;2462;51.456;7.248;2023-11-21T09:40:22;15.43;;;8.73;;
2934;SDS011;2462;51.456;7.248;2023-11-21T09:42:55;12.60;;;8.10;;
2934;SDS011;2462;51.456;7.248;2023-11-21T09:47:56;15.93;;;10.37;;
2934;SDS011;2462;51.456;7.248;2023-11-21T09:50:22;15.80;;;9.13;;
2934;SDS011;2462;51.456;7.248;2023-11-21T09:55:16;16.53;;;9.80;;
2934;SDS011;2462;51.456;7.248;2023-11-21T09:57:47;13.90;;;8.70;;
2934;SDS011;2462;51.456;7.248;2023-11-21T10:00:14;15.50;;;8.90;;
2934;SDS011;2462;51.456;7.248;2023-11-21T10:02:42;19.13;;;9.13;;
2934;SDS011;2462;51.456;7.248;2023-11-21T10:05:09;23.73;;;11.20;;
2934;SDS011;2462;51.456;7.248;2023-11-21T10:07:36;17.20;;;9.67;;
2934;SDS011;2462;51.456;7.248;2023-11-21T10:10:06;15.30;;;9.23;;
2934;SDS011;2462;51.456;7.248;2023-11-21T10:12:34;16.50;;;9.90;;
2934;SDS011;2462;51.456;7.248;2023-11-21T10:15:01;19.37;;;10.03;;
2934;SDS011;2462;51.456;7.248;2023-11-21T10:17:31;18.60;;;10.73;;
2934;SDS011;2462;51.456;7.248;2023-11-21T10:20:03;20.53;;;10.33;;
2934;SDS011;2462;51.456;7.248;2023-11-21T10:22:31;16.07;;;9.57;;
2934;SDS011;2462;51.456;7.248;2023-11-21T10:24:58;14.77;;;9.60;;
2934;SDS011;2462;51.456;7.248;2023-11-21T10:27:26;18.10;;;11.50;;
2934;SDS011;2462;51.456;7.248;2023-11-21T10:29:52;15.30;;;9.50;;
2934;SDS011;2462;51.456;7.248;2023-11-21T10:32:18;18.33;;;10.50;;
2934;SDS011;2462;51.456;7.248;2023-11-21T10:34:55;19.27;;;11.60;;
2934;SDS011;2462;51.456;7.248;2023-11-21T10:37:23;15.80;;;10.43;;
2934;SDS011;2462;51.456;7.248;2023-11-21T10:39:49;20.00;;;10.83;;
2934;SDS011;2462;51.456;7.248;2023-11-21T10:42:15;17.33;;;11.23;;
2934;SDS011;2462;51.456;7.248;2023-11-21T10:44:45;23.43;;;11.90;;
2934;SDS011;2462;51.456;7.248;2023-11-21T10:47:11;18.83;;;11.73;;
2934;SDS011;2462;51.456;7.248;2023-11-21T10:49:38;20.10;;;11.43;;
2934;SDS011;2462;51.456;7.248;2023-11-21T10:52:05;22.30;;;11.80;;
2934;SDS011;2462;51.456;7.248;2023-11-21T10:54:31;18.70;;;11.80;;
2934;SDS011;2462;51.456;7.248;2023-11-21T10:56:59;29.20;;;12.50;;
2934;SDS011;2462;51.456;7.248;2023-11-21T10:59:30;28.83;;;14.27;;
2934;SDS011;2462;51.456;7.248;2023-11-21T11:01:57;22.80;;;13.17;;
2934;SDS011;2462;51.456;7.248;2023-11-21T11:04:25;23.93;;;12.57;;
2934;SDS011;2462;51.456;7.248;2023-11-21T11:07:02;25.67;;;13.60;;
2934;SDS011;2462;51.456;7.248;2023-11-21T11:09:28;21.57;;;12.40;;
2934;SDS011;2462;51.456;7.248;2023-11-21T11:11:58;27.13;;;14.07;;
2934;SDS011;2462;51.456;7.248;2023-11-21T11:14:24;21.93;;;13.70;;
2934;SDS011;2462;51.456;7.248;2023-11-21T11:16:53;23.27;;;12.13;;
2934;SDS011;2462;51.456;7.248;2023-11-21T11:19:22;22.10;;;12.50;;
2934;SDS011;2462;51.456;7.248;2023-11-21T11:21:53;24.30;;;13.07;;
2934;SDS011;2462;51.456;7.248;2023-11-21T11:29:31;26.77;;;13.10;;
2934;SDS011;2462;51.456;7.248;2023-11-21T11:32:04;25.03;;;12.70;;
2934;SDS011;2462;51.456;7.248;2023-11-21T11:34:42;20.20;;;13.47;;
2934;SDS011;2462;51.456;7.248;2023-11-21T11:37:11;21.37;;;13.80;;
2934;SDS011;2462;51.456;7.248;2023-11-21T11:42:07;23.07;;;14.07;;
2934;SDS011;2462;51.456;7.248;2023-11-21T11:44:46;23.47;;;13.40;;
2934;SDS011;2462;51.456;7.248;2023-11-21T11:47:15;24.27;;;12.80;;
2934;SDS011;2462;51.456;7.248;2023-11-21T11:50:01;21.77;;;13.57;;
2934;SDS011;2462;51.456;7.248;2023-11-21T11:52:46;21.10;;;13.53;;
2934;SDS011;2462;51.456;7.248;2023-11-21T11:55:14;21.87;;;12.70;;
2934;SDS011;2462;51.456;7.248;2023-11-21T11:57:43;21.07;;;13.10;;
2934;SDS011;2462;51.456;7.248;2023-11-21T12:02:50;21.50;;;12.70;;
2934;SDS011;2462;51.456;7.248;2023-11-21T12:05:16;25.00;;;13.70;;
2934;SDS011;2462;51.456;7.248;2023-11-21T12:10:18;21.00;;;11.97;;
2934;SDS011;2462;51.456;7.248;2023-11-21T12:12:45;21.03;;;12.73;;
2934;SDS011;2462;51.456;7.248;2023-11-21T12:15:11;21.20;;;12.50;;
2934;SDS011;2462;51.456;7.248;2023-11-21T12:17:40;21.23;;;13.47;;
2934;SDS011;2462;51.456;7.248;2023-11-21T12:20:07;23.70;;;13.03;;
2934;SDS011;2462;51.456;7.248;2023-11-21T12:22:41;20.60;;;11.37;;
2934;SDS011;2462;51.456;7.248;2023-11-21T12:25:07;19.37;;;11.50;;
2934;SDS011;2462;51.456;7.248;2023-11-21T12:27:33;24.10;;;11.60;;
2934;SDS011;2462;51.456;7.248;2023-11-21T12:30:00;16.60;;;10.10;;
2934;SDS011;2462;51.456;7.248;2023-11-21T12:32:26;17.80;;;11.80;;
2934;SDS011;2462;51.456;7.248;2023-11-21T12:34:52;15.00;;;10.97;;
2934;SDS011;2462;51.456;7.248;2023-11-21T12:37:19;25.30;;;12.43;;
2934;SDS011;2462;51.456;7.248;2023-11-21T12:39:45;18.80;;;11.73;;
2934;SDS011;2462;51.456;7.248;2023-11-21T12:42:11;21.90;;;11.60;;
2934;SDS011;2462;51.456;7.248;2023-11-21T12:44:37;16.23;;;10.30;;
2934;SDS011;2462;51.456;7.248;2023-11-21T12:47:06;22.37;;;11.43;;
2934;SDS011;2462;51.456;7.248;2023-11-21T12:49:33;15.87;;;10.63;;
2934;SDS011;2462;51.456;7.248;2023-11-21T12:51:59;16.43;;;9.67;;
2934;SDS011;2462;51.456;7.248;2023-11-21T12:54:28;15.00;;;10.30;;
2934;SDS011;2462;51.456;7.248;2023-11-21T12:56:58;16.63;;;10.27;;
2934;SDS011;2462;51.456;7.248;2023-11-21T12:59:24;20.30;;;11.20;;
2934;SDS011;2462;51.456;7.248;2023-11-21T13:01:51;16.90;;;10.90;;
2934;SDS011;2462;51.456;7.248;2023-11-21T13:04:29;15.80;;;10.40;;
2934;SDS011;2462;51.456;7.248;2023-11-21T13:06:55;14.93;;;9.90;;
2934;SDS011;2462;51.456;7.248;2023-11-21T13:09:29;18.47;;;11.13;;
2934;SDS011;2462;51.456;7.248;2023-11-21T13:12:00;17.57;;;10.50;;
2934;SDS011;2462;51.456;7.248;2023-11-21T13:14:29;17.57;;;10.33;;
2934;SDS011;2462;51.456;7.248;2023-11-21T13:16:56;15.17;;;10.90;;
2934;SDS011;2462;51.456;7.248;2023-11-21T13:19:23;13.73;;;10.37;;
2934;SDS011;2462;51.456;7.248;2023-11-21T13:21:55;13.90;;;9.47;;
2934;SDS011;2462;51.456;7.248;2023-11-21T13:24:21;12.17;;;8.80;;
2934;SDS011;2462;51.456;7.248;2023-11-21T13:26:47;14.80;;;10.30;;
2934;SDS011;2462;51.456;7.248;2023-11-21T13:29:14;13.30;;;10.07;;
2934;SDS011;2462;51.456;7.248;2023-11-21T13:31:42;18.33;;;10.10;;
2934;SDS011;2462;51.456;7.248;2023-11-21T13:34:08;13.87;;;8.23;;
2934;SDS011;2462;51.456;7.248;2023-11-21T13:36:36;13.33;;;9.20;;
2934;SDS011;2462;51.456;7.248;2023-11-21T13:39:02;13.00;;;9.13;;
2934;SDS011;2462;51.456;7.248;2023-11-21T13:41:40;18.70;;;9.73;;
2934;SDS011;2462;51.456;7.248;2023-11-21T13:44:06;14.47;;;8.87;;
2934;SDS011;2462;51.456;7.248;2023-11-21T13:46:51;13.57;;;9.60;;
2934;SDS011;2462;51.456;7.248;2023-11-21T13:49:17;11.90;;;8.80;;
2934;SDS011;2462;51.456;7.248;2023-11-21T13:51:46;12.50;;;8.70;;
2934;SDS011;2462;51.456;7.248;2023-11-21T13:54:15;13.00;;;9.67;;
2934;SDS011;2462;51.456;7.248;2023-11-21T13:56:42;16.10;;;8.17;;
2934;SDS011;2462;51.456;7.248;2023-11-21T13:59:09;11.07;;;8.40;;
2934;SDS011;2462;51.456;7.248;2023-11-21T14:01:45;13.67;;;9.20;;
2934;SDS011;2462;51.456;7.248;2023-11-21T14:04:17;16.33;;;10.73;;
2934;SDS011;2462;51.456;7.248;2023-11-21T14:06:45;14.13;;;9.20;;
2934;SDS011;2462;51.456;7.248;2023-11-21T14:09:15;23.50;;;9.50;;
2934;SDS011;2462;51.456;7.248;2023-11-21T14:11:57;13.60;;;9.43;;
2934;SDS011;2462;51.456;7.248;2023-11-21T14:14:24;14.40;;;11.20;;
2934;SDS011;2462;51.456;7.248;2023-11-21T14:16:51;13.00;;;9.57;;
2934;SDS011;2462;51.456;7.248;2023-11-21T14:19:17;14.13;;;10.80;;
2934;SDS011;2462;51.456;7.248;2023-11-21T14:21:43;15.93;;;11.27;;
2934;SDS011;2462;51.456;7.248;2023-11-21T14:24:10;15.93;;;12.03;;
2934;SDS011;2462;51.456;7.248;2023-11-21T14:26:43;15.43;;;10.77;;
2934;SDS011;2462;51.456;7.248;2023-11-21T14:29:11;12.50;;;10.27;;
2934;SDS011;2462;51.456;7.248;2023-11-21T14:31:39;29.63;;;12.60;;
2934;SDS011;2462;51.456;7.248;2023-11-21T14:34:05;20.33;;;11.30;;
2934;SDS011;2462;51.456;7.248;2023-11-21T14:36:34;44.43;;;13.03;;
2934;SDS011;2462;51.456;7.248;2023-11-21T14:39:02;38.53;;;12.60;;
2934;SDS011;2462;51.456;7.248;2023-11-21T14:41:32;48.17;;;13.50;;
2934;SDS011;2462;51.456;7.248;2023-11-21T14:44:00;41.60;;;12.73;;
2934;SDS011;2462;51.456;7.248;2023-11-21T14:46:27;43.60;;;12.80;;
2934;SDS011;2462;51.456;7.248;2023-11-21T14:48:53;54.90;;;14.37;;
2934;SDS011;2462;51.456;7.248;2023-11-21T14:51:43;34.10;;;12.23;;
2934;SDS011;2462;51.456;7.248;2023-11-21T14:54:28;29.57;;;12.90;;
2934;SDS011;2462;51.456;7.248;2023-11-21T14:57:11;28.57;;;13.00;;
2934;SDS011;2462;51.456;7.248;2023-11-21T14:59:45;24.67;;;11.80;;
2934;SDS011;2462;51.456;7.248;2023-11-21T15:02:16;18.27;;;10.70;;
2934;SDS011;2462;51.456;7.248;2023-11-21T15:04:47;35.80;;;11.50;;
2934;SDS011;2462;51.456;7.248;2023-11-21T15:07:14;22.20;;;10.90;;
2934;SDS011;2462;51.456;7.248;2023-11-21T15:09:40;26.80;;;11.23;;
2934;SDS011;2462;51.456;7.248;2023-11-21T15:12:07;15.53;;;9.93;;
2934;SDS011;2462;51.456;7.248;2023-11-21T15:14:46;23.73;;;10.93;;
2934;SDS011;2462;51.456;7.248;2023-11-21T15:17:14;22.77;;;10.93;;
2934;SDS011;2462;51.456;7.248;2023-11-21T15:19:47;13.83;;;10.87;;
2934;SDS011;2462;51.456;7.248;2023-11-21T15:22:15;18.83;;;10.50;;
2934;SDS011;2462;51.456;7.248;2023-11-21T15:24:41;19.63;;;10.77;;